Scroll down
FLIGHT INFORMATION
Federal Express (FedEx)

FDX73

At Arrival Gate

YSSY
 RPLC
DATE: 2022-07-03
GATE: 
GATE DEPARTURE: 09:06
TAKEOFF: 09:13
DATE: 2022-07-03
GATE:  -
LANDING: 16:56
GATE ARRIVAL: 17:01
FLIGHT DATA
Crew: 
Speed: 
496 kts
Altitude: 
40,016 ft
Stage Length: 
3,430.2 nm
Block Time: 
7.9 hrs
Flight Time: 
7.7 hrs
Fuel Used: 
94,866 lb
Cleared Route: YSSY KADOM PKS MACLA APOMA POLEV PULOL ANZAC YUSEF TNK DOSAM TN ANGED LAKUP DN OCTOB ADKUL BUTPA AMN BONDA MOLLY TANAL ZAM TINDO LIMAN WAKAN OCORO PUSIT SAJ TAPAP VERDE TAALA MIA VOTAS OLIVA RPLC
TRACK DATA
50,000 ft 1,000 kts
AIRCRAFT INFO AND CUMULATIVE STATS
Aircraft Type: 
B77LF
Registration: 
SELCAL: 
HKBJ
MSN/LN: 
41067 / 1057
Total Flights: 
1
Total Block Time: 
7.9 hrs
Total Flight Time: 
7.7 hrs
Total Fuel Used: 
94,866 lb
DATALINK LOG | Newest first | Current as of: 2022-08-16 06:09:37
LABEL SEQUENCE CONTENT Dn/Up
QD453317:01 12.5▼ Dn
QC392816:56▼ Dn
GA5151GATE PENDING▲ Up
GR5141RPLC 16:55 MAAS 00 YP/UM 0/0 WCHR/S/C 0/0/0 HI-VAL NO▼ Dn
2U2718RPLC 031900Z 25002KT 8000 FEW020 BKN100 27/22 Q1008 NOSIG RMK A2977▲ Up
2S2717RPLC▼ Dn
QB563309:13▼ Dn
QA502809:06 107.4▼ Dn
DM794725 ATIS YSSY D▼ Dn
2U3716RPLL 031200Z 13006KT 070V170 9999 SCT020 OVC100 30/24 Q1008 NOSIG RMK A2977▲ Up
2U3716RPLC 031200Z 35002KT 5000 HZ SCT020 OVC100 29/25 Q1009 NOSIG RMK A2980▲ Up
2U3715YSSY 031230Z 14025G35KT 6000 -SHRA SCT012 BKN018 BKN035 16/14 Q1015▲ Up
2S3715YSSY RPLC RPLL▼ Dn
A33615CLEARED TO RPLC VIA KADOM A576 APOMA/N0486F400 A576 POLEV T25 TNK J30 TN J251 DN A461 MOLLY/N0491F380 A461 MIA W16 OLIVA. SQUAWK 3613.▲ Up
B33614YSSY RPLC FDX73 N889FD ▼ Dn
Q03513[LINK ACK]▲ Up
Q03513[LINK TEST]▼ Dn


AIRCRAFT HISTORY
FLIGHT DATE FLIGHT NO. ORIGIN DESTINATION CLEARED ROUTE BLOCK TIME FLIGHT TIME FUEL USED PILOT
2022-07-03FDX73YSSY RPLC YSSY KADOM PKS MACLA APOMA POLEV PULOL ANZAC YUSEF TNK DOSAM TN ANGED LAKUP DN OCTOB ADKUL BUTPA AMN BONDA MOLLY TANAL ZAM TINDO LIMAN WAKAN OCORO PUSIT SAJ TAPAP VERDE TAALA MIA VOTAS OLIVA RPLC7.9 hrs7.7 hrs94,866 lbAllan Burek